createdAt,value
2022-09-22T00:02:02.669Z,32.38
2022-09-22T00:04:33.533Z,32.36
2022-09-22T00:07:04.450Z,32.35
2022-09-22T00:09:35.102Z,32.34
2022-09-22T00:12:08.579Z,32.34
2022-09-22T00:14:39.268Z,32.32
2022-09-22T00:17:09.993Z,32.31
2022-09-22T00:19:40.643Z,32.30
2022-09-22T00:22:11.058Z,32.29
2022-09-22T00:24:43.630Z,32.27
2022-09-22T00:27:16.439Z,32.26
2022-09-22T00:29:47.507Z,32.25
2022-09-22T00:32:19.081Z,32.24
2022-09-22T00:34:50.668Z,32.23
2022-09-22T00:37:21.722Z,32.22
2022-09-22T00:39:54.376Z,32.22
2022-09-22T00:42:28.477Z,32.22
2022-09-22T00:45:03.650Z,32.19
2022-09-22T00:47:40.304Z,32.19
2022-09-22T00:50:17.333Z,32.18
2022-09-22T00:53:03.403Z,32.17
2022-09-22T00:55:43.514Z,32.15
2022-09-22T00:58:19.599Z,32.14
2022-09-22T01:00:51.274Z,32.13
2022-09-22T01:03:29.574Z,32.13
2022-09-22T01:06:07.986Z,32.11
2022-09-22T01:08:44.199Z,32.11
2022-09-22T01:11:19.578Z,32.11
2022-09-22T01:14:16.602Z,32.08
2022-09-22T01:17:01.873Z,32.07
2022-09-22T01:20:19.106Z,32.03
2022-09-22T01:23:32.408Z,32.01
2022-09-22T01:26:37.809Z,32.00
2022-09-22T01:29:52.624Z,31.96
2022-09-22T01:32:36.094Z,31.92
2022-09-22T01:35:19.247Z,31.88
2022-09-22T01:38:04.466Z,31.83
2022-09-22T01:40:44.762Z,31.79
2022-09-22T01:43:34.255Z,31.76
2022-09-22T01:46:12.131Z,31.72
2022-09-22T01:48:50.939Z,31.69
2022-09-22T01:51:29.339Z,31.66
2022-09-22T01:54:08.573Z,31.63
2022-09-22T01:56:41.717Z,31.58
2022-09-22T01:59:17.200Z,31.55
2022-09-22T02:01:55.419Z,31.52
2022-09-22T02:04:33.619Z,31.49
2022-09-22T02:07:10.470Z,31.46
2022-09-22T02:09:45.020Z,31.43
2022-09-22T02:12:19.058Z,31.39
2022-09-22T02:14:50.553Z,31.36
2022-09-22T02:17:21.443Z,31.33
2022-09-22T02:19:54.335Z,31.33
2022-09-22T02:22:25.189Z,31.31
2022-09-22T02:24:56.153Z,31.29
2022-09-22T02:27:37.168Z,31.29
2022-09-22T02:30:12.584Z,31.26
2022-09-22T02:32:52.166Z,31.23
2022-09-22T02:35:29.781Z,31.21
2022-09-22T02:38:11.209Z,31.20
2022-09-22T02:40:52.183Z,31.17
2022-09-22T02:43:40.174Z,31.14
2022-09-22T02:46:22.083Z,31.09
2022-09-22T02:48:58.555Z,31.07
2022-09-22T02:51:33.553Z,31.05
2022-09-22T02:54:04.875Z,31.05
2022-09-22T02:56:36.270Z,31.03
2022-09-22T02:59:07.423Z,31.01
2022-09-22T03:01:38.552Z,31.02
2022-09-22T03:04:10.032Z,31.01
2022-09-22T03:06:42.397Z,31.02
2022-09-22T03:09:13.199Z,31.01
2022-09-22T03:11:44.604Z,31.01
2022-09-22T03:14:15.782Z,31.00
2022-09-22T03:16:46.678Z,30.99
2022-09-22T03:19:17.593Z,30.98
2022-09-22T03:21:50.401Z,30.98
2022-09-22T03:24:21.557Z,30.97
2022-09-22T03:26:52.040Z,30.98
2022-09-22T03:29:23.086Z,30.96
2022-09-22T03:31:53.821Z,30.96
2022-09-22T03:34:23.895Z,30.96
2022-09-22T03:36:56.775Z,30.96
2022-09-22T03:39:27.561Z,30.93
2022-09-22T03:41:58.183Z,30.89
2022-09-22T03:44:29.657Z,30.88
2022-09-22T03:47:00.749Z,30.89
2022-09-22T03:49:31.967Z,30.89
2022-09-22T03:52:05.336Z,30.89
2022-09-22T03:54:37.614Z,30.87
2022-09-22T03:57:08.167Z,30.85
2022-09-22T03:59:39.487Z,30.85
2022-09-22T04:02:09.767Z,30.83
2022-09-22T04:04:40.106Z,30.80
2022-09-22T04:07:12.940Z,30.78
2022-09-22T04:09:44.119Z,30.75
2022-09-22T04:12:14.886Z,30.71
2022-09-22T04:14:45.047Z,30.70
2022-09-22T04:17:15.200Z,30.72
2022-09-22T04:19:46.687Z,30.72
2022-09-22T04:22:19.026Z,30.75
2022-09-22T04:24:49.166Z,30.73
2022-09-22T04:27:20.559Z,30.73
2022-09-22T04:29:52.230Z,30.73
2022-09-22T04:32:23.081Z,30.76
2022-09-22T04:34:54.446Z,30.78
2022-09-22T04:37:27.085Z,30.84
2022-09-22T04:39:59.784Z,30.87
2022-09-22T04:42:30.642Z,30.94
2022-09-22T04:45:02.579Z,30.98
2022-09-22T04:47:33.365Z,31.04
2022-09-22T04:50:04.208Z,31.08
2022-09-22T04:52:38.058Z,31.12
2022-09-22T04:55:10.792Z,31.17
2022-09-22T04:57:42.024Z,31.24
2022-09-22T05:00:15.032Z,31.32
2022-09-22T05:02:45.944Z,31.39
2022-09-22T05:05:17.251Z,31.45
2022-09-22T05:07:54.620Z,31.49
2022-09-22T05:10:27.896Z,31.53
2022-09-22T05:12:58.962Z,31.58
2022-09-22T05:15:33.732Z,31.65
2022-09-22T05:18:07.640Z,31.73
2022-09-22T05:20:39.365Z,31.80
2022-09-22T05:23:12.248Z,31.87
2022-09-22T05:25:44.746Z,31.96
2022-09-22T05:28:15.651Z,32.04
2022-09-22T05:30:46.781Z,32.10
2022-09-22T05:33:17.222Z,32.16
2022-09-22T05:35:48.523Z,32.23
2022-09-22T05:38:21.484Z,32.31
2022-09-22T05:40:52.542Z,32.37
2022-09-22T05:43:23.706Z,32.44
2022-09-22T05:45:54.485Z,32.52
2022-09-22T05:48:30.851Z,32.60
2022-09-22T05:51:02.172Z,32.69
2022-09-22T05:53:35.056Z,32.78
2022-09-22T05:56:06.665Z,32.86
2022-09-22T05:58:37.282Z,32.95
2022-09-22T06:01:08.289Z,33.03
2022-09-22T06:03:39.411Z,33.10
2022-09-22T06:06:10.513Z,33.19
2022-09-22T06:08:47.764Z,33.26
2022-09-22T06:11:19.756Z,33.35
2022-09-22T06:13:53.670Z,33.44
2022-09-22T06:16:24.667Z,33.53
2022-09-22T06:18:55.471Z,33.62
2022-09-22T06:21:26.537Z,33.68
2022-09-22T06:23:58.955Z,33.76
2022-09-22T06:26:30.126Z,33.85
2022-09-22T06:29:00.936Z,33.93
2022-09-22T06:31:31.456Z,34.00
2022-09-22T06:34:06.842Z,34.06
2022-09-22T06:36:38.749Z,34.13
2022-09-22T06:39:12.107Z,34.20
2022-09-22T06:41:43.277Z,34.25
2022-09-22T06:44:16.022Z,34.29
2022-09-22T06:46:46.901Z,34.33
2022-09-22T06:49:17.773Z,34.33
2022-09-22T06:51:50.358Z,34.34
2022-09-22T06:54:25.350Z,34.38
2022-09-22T06:56:56.147Z,34.44
2022-09-22T06:59:27.207Z,34.47
2022-09-22T07:01:57.721Z,34.53
2022-09-22T07:04:28.204Z,34.60
2022-09-22T07:06:59.223Z,34.68
2022-09-22T07:09:31.669Z,34.77
2022-09-22T07:12:01.984Z,34.83
2022-09-22T07:14:33.255Z,34.86
2022-09-22T07:17:03.511Z,34.86
2022-09-22T07:19:36.782Z,34.86
2022-09-22T07:22:08.808Z,34.86
2022-09-22T07:24:42.731Z,34.85
2022-09-22T07:27:15.178Z,34.85
2022-09-22T07:29:48.230Z,34.87
2022-09-22T07:32:18.973Z,34.93
2022-09-22T07:34:49.642Z,34.98
2022-09-22T07:37:20.438Z,35.06
2022-09-22T07:39:53.339Z,35.15
2022-09-22T07:42:24.072Z,35.22
2022-09-22T07:45:11.596Z,35.31
2022-09-22T07:47:59.164Z,35.39
2022-09-22T07:50:29.529Z,35.43
2022-09-22T07:53:00.546Z,35.48
2022-09-22T07:55:32.779Z,35.55
2022-09-22T07:58:03.907Z,35.61
2022-09-22T08:00:37.032Z,35.64
2022-09-22T08:03:09.109Z,35.68
2022-09-22T08:05:41.299Z,35.71
2022-09-22T08:08:12.622Z,35.74
2022-09-22T08:10:44.919Z,35.76
2022-09-22T08:13:16.626Z,35.77
2022-09-22T08:15:46.716Z,35.79
2022-09-22T08:18:17.613Z,35.82
2022-09-22T08:20:48.459Z,35.82
2022-09-22T08:23:18.815Z,35.80
2022-09-22T08:25:51.291Z,35.76
2022-09-22T08:28:22.116Z,35.73
2022-09-22T08:30:53.077Z,35.75
2022-09-22T08:33:24.212Z,35.78
2022-09-22T08:35:57.449Z,35.81
2022-09-22T08:38:29.623Z,35.82
2022-09-22T08:41:18.837Z,35.88
2022-09-22T08:43:56.525Z,35.93
2022-09-22T08:46:33.332Z,35.99
2022-09-22T08:49:27.873Z,36.03
2022-09-22T08:52:05.416Z,36.06
2022-09-22T08:54:36.963Z,36.08
2022-09-22T08:57:57.746Z,36.11
2022-09-22T09:00:40.448Z,36.14
2022-09-22T09:03:33.636Z,36.18
2022-09-22T09:06:16.248Z,36.22
2022-09-22T09:09:20.755Z,36.26
2022-09-22T09:12:20.612Z,36.28
2022-09-22T09:15:35.343Z,36.27
2022-09-22T09:18:16.649Z,36.28
2022-09-22T09:20:52.719Z,36.30
2022-09-22T09:26:24.318Z,36.37
2022-09-22T09:29:04.115Z,36.43
2022-09-22T09:31:42.442Z,36.44
2022-09-22T09:34:18.884Z,36.44
2022-09-22T09:36:55.739Z,36.43
2022-09-22T09:39:35.211Z,36.41
2022-09-22T09:42:20.356Z,36.41
2022-09-22T09:44:58.937Z,36.40
2022-09-22T09:48:08.011Z,36.40
2022-09-22T09:50:40.150Z,36.40
2022-09-22T09:53:34.222Z,36.44
2022-09-22T09:56:05.250Z,36.46
2022-09-22T09:58:52.523Z,36.49
2022-09-22T10:01:25.361Z,36.51
2022-09-22T10:03:56.169Z,36.53
2022-09-22T10:06:28.973Z,36.55
2022-09-22T10:09:00.197Z,36.54
2022-09-22T10:11:35.377Z,36.56
2022-09-22T10:14:06.383Z,36.58
2022-09-22T10:16:40.180Z,36.61
2022-09-22T10:19:27.995Z,36.62
2022-09-22T10:22:26.824Z,36.60
2022-09-22T10:25:01.600Z,36.59
2022-09-22T10:27:34.183Z,36.60
2022-09-22T10:30:26.331Z,36.61
2022-09-22T10:33:23.186Z,36.59
2022-09-22T10:36:09.460Z,36.58
2022-09-22T10:38:45.562Z,36.57
2022-09-22T10:41:26.832Z,36.56
2022-09-22T10:44:15.522Z,36.54
2022-09-22T10:47:26.738Z,36.50
2022-09-22T10:50:39.863Z,36.48
2022-09-22T10:53:40.393Z,36.46
2022-09-22T10:56:22.690Z,36.47
2022-09-22T10:59:35.097Z,36.46
2022-09-22T11:02:51.898Z,36.44
2022-09-22T11:06:05.996Z,36.45
2022-09-22T11:09:08.452Z,36.45
2022-09-22T11:12:10.563Z,36.44
2022-09-22T11:15:03.028Z,36.43
2022-09-22T11:18:09.150Z,36.44
2022-09-22T11:20:46.768Z,36.42
2022-09-22T11:23:48.939Z,36.38
2022-09-22T11:26:51.954Z,36.29
2022-09-22T11:30:11.156Z,36.25
2022-09-22T11:33:14.702Z,36.23
2022-09-22T11:36:06.575Z,36.22
2022-09-22T11:39:26.249Z,36.22
2022-09-22T11:42:15.926Z,36.22
2022-09-22T11:45:08.347Z,36.22
2022-09-22T11:48:04.767Z,36.21
2022-09-22T11:51:09.124Z,36.19
2022-09-22T11:54:10.831Z,36.18
2022-09-22T11:56:47.527Z,36.14
2022-09-22T11:59:33.599Z,36.09
2022-09-22T12:02:13.741Z,36.07
2022-09-22T12:04:53.024Z,36.06
2022-09-22T12:07:32.907Z,36.02
2022-09-22T12:10:09.562Z,36.01
2022-09-22T12:12:43.305Z,36.00
2022-09-22T12:15:34.099Z,35.98
2022-09-22T12:18:14.976Z,35.96
2022-09-22T12:20:59.927Z,35.95
2022-09-22T12:23:54.252Z,35.93
2022-09-22T12:26:35.137Z,35.90
2022-09-22T12:29:24.344Z,35.88
2022-09-22T12:31:58.754Z,35.84
2022-09-22T12:34:34.483Z,35.85
2022-09-22T12:37:16.044Z,35.82
2022-09-22T12:39:51.998Z,35.78
2022-09-22T12:42:33.494Z,35.73
2022-09-22T12:45:20.100Z,35.72
2022-09-22T12:47:56.210Z,35.69
2022-09-22T12:50:43.003Z,35.65
2022-09-22T12:53:28.516Z,35.60
2022-09-22T12:56:01.516Z,35.57
2022-09-22T12:58:47.187Z,35.53
2022-09-22T13:01:37.352Z,35.49
2022-09-22T13:04:21.174Z,35.45
2022-09-22T13:07:00.342Z,35.42
2022-09-22T13:09:45.369Z,35.37
2022-09-22T13:12:31.457Z,35.35
2022-09-22T13:15:19.630Z,35.33
2022-09-22T13:17:51.536Z,35.32
2022-09-22T13:20:27.287Z,35.30
2022-09-22T13:23:06.625Z,35.27
2022-09-22T13:25:37.845Z,35.24
2022-09-22T13:28:20.615Z,35.22
2022-09-22T13:31:06.067Z,35.21
2022-09-22T13:33:39.569Z,35.17
2022-09-22T13:36:15.453Z,35.15
2022-09-22T13:38:51.376Z,35.11
2022-09-22T13:41:27.093Z,35.07
2022-09-22T13:44:08.228Z,35.05
2022-09-22T13:46:44.045Z,35.01
2022-09-22T13:49:24.093Z,34.98
2022-09-22T13:52:01.572Z,34.97
2022-09-22T13:54:37.206Z,34.95
2022-09-22T13:57:20.618Z,34.94
2022-09-22T13:59:55.954Z,34.90
2022-09-22T14:02:31.617Z,34.89
2022-09-22T14:05:09.867Z,34.88
2022-09-22T14:07:55.536Z,34.86
2022-09-22T14:10:33.409Z,34.83
2022-09-22T14:13:14.791Z,34.79
2022-09-22T14:15:49.083Z,34.78
2022-09-22T14:18:27.722Z,34.74
2022-09-22T14:21:01.266Z,34.70
2022-09-22T14:23:34.448Z,34.67
2022-09-22T14:26:20.572Z,34.65
2022-09-22T14:28:51.528Z,34.62
2022-09-22T14:31:28.196Z,34.62
2022-09-22T14:33:59.648Z,34.61
2022-09-22T14:36:31.394Z,34.60
2022-09-22T14:39:10.573Z,34.57
2022-09-22T14:41:41.368Z,34.56
2022-09-22T14:44:49.016Z,34.54
2022-09-22T14:47:40.583Z,34.51
2022-09-22T14:50:20.946Z,34.48
2022-09-22T14:53:01.692Z,34.46
2022-09-22T14:55:37.694Z,34.45
2022-09-22T14:58:18.351Z,34.43
2022-09-22T15:01:15.079Z,34.41
2022-09-22T15:03:57.363Z,34.37
2022-09-22T15:06:36.473Z,34.35
2022-09-22T15:09:09.213Z,34.34
2022-09-22T15:11:54.287Z,34.32
2022-09-22T15:14:43.610Z,34.29
2022-09-22T15:18:03.245Z,34.26
2022-09-22T15:20:52.784Z,34.22
2022-09-22T15:23:29.456Z,34.19
2022-09-22T15:26:04.140Z,34.17
2022-09-22T15:28:38.590Z,34.14
2022-09-22T15:31:11.254Z,34.11
2022-09-22T15:33:42.128Z,34.09
2022-09-22T15:36:18.898Z,34.08
2022-09-22T15:38:49.516Z,34.07
2022-09-22T15:41:20.461Z,34.07
2022-09-22T15:43:51.749Z,34.04
2022-09-22T15:46:34.649Z,34.02
2022-09-22T15:49:09.314Z,34.00
2022-09-22T15:51:42.972Z,33.99
2022-09-22T15:54:18.323Z,33.99
2022-09-22T15:56:53.344Z,33.98
2022-09-22T15:59:28.539Z,33.98
2022-09-22T16:02:00.297Z,33.96
2022-09-22T16:04:34.027Z,33.95
2022-09-22T16:07:13.488Z,33.94
2022-09-22T16:09:44.286Z,33.93
2022-09-22T16:12:20.539Z,33.92
2022-09-22T16:14:55.468Z,33.93
2022-09-22T16:17:26.748Z,33.92
2022-09-22T16:19:58.188Z,33.91
2022-09-22T16:22:30.910Z,33.91
2022-09-22T16:25:01.932Z,33.90
2022-09-22T16:27:32.807Z,33.91
2022-09-22T16:30:03.600Z,33.90
2022-09-22T16:32:37.102Z,33.91
2022-09-22T16:35:09.559Z,33.90
2022-09-22T16:37:42.675Z,33.89
2022-09-22T16:40:14.282Z,33.86
2022-09-22T16:42:45.804Z,33.85
2022-09-22T16:45:16.798Z,33.83
2022-09-22T16:47:47.857Z,33.84
2022-09-22T16:50:19.778Z,33.84
2022-09-22T16:52:52.291Z,33.83
2022-09-22T16:55:23.092Z,33.81
2022-09-22T16:57:53.528Z,33.79
2022-09-22T17:00:24.622Z,33.78
2022-09-22T17:02:55.515Z,33.76
2022-09-22T17:05:26.400Z,33.75
2022-09-22T17:08:03.533Z,33.74
2022-09-22T17:10:37.235Z,33.72
2022-09-22T17:13:11.336Z,33.69
2022-09-22T17:15:42.032Z,33.68
2022-09-22T17:18:12.955Z,33.68
2022-09-22T17:20:43.612Z,33.68
2022-09-22T17:23:17.531Z,33.69
2022-09-22T17:25:49.891Z,33.66
2022-09-22T17:28:20.632Z,33.64
2022-09-22T17:31:08.470Z,33.64
2022-09-22T17:33:47.902Z,33.62
2022-09-22T17:36:24.972Z,33.61
2022-09-22T17:39:01.629Z,33.61
2022-09-22T17:41:35.964Z,33.59
2022-09-22T17:44:07.954Z,33.59
2022-09-22T17:46:59.537Z,33.59
2022-09-22T17:49:47.249Z,33.58
2022-09-22T17:52:35.591Z,33.56
2022-09-22T17:55:17.406Z,33.56
2022-09-22T17:57:50.959Z,33.55
2022-09-22T18:00:24.215Z,33.56
2022-09-22T18:02:58.910Z,33.56
2022-09-22T18:05:32.750Z,33.55
2022-09-22T18:08:04.348Z,33.54
2022-09-22T18:10:37.831Z,33.54
2022-09-22T18:13:10.161Z,33.52
2022-09-22T18:15:41.481Z,33.50
2022-09-22T18:18:12.091Z,33.47
2022-09-22T18:20:43.355Z,33.42
2022-09-22T18:23:14.480Z,33.41
2022-09-22T18:25:47.577Z,33.41
2022-09-22T18:28:24.036Z,33.41
2022-09-22T18:30:54.940Z,33.40
2022-09-22T18:33:25.690Z,33.39
2022-09-22T18:35:57.159Z,33.39
2022-09-22T18:38:28.930Z,33.39
2022-09-22T18:41:02.206Z,33.40
2022-09-22T18:43:33.101Z,33.39
2022-09-22T18:46:08.340Z,33.40
2022-09-22T18:48:42.157Z,33.39
2022-09-22T18:51:12.951Z,33.40
2022-09-22T18:53:44.043Z,33.39
2022-09-22T18:56:20.587Z,33.39
2022-09-22T18:58:51.443Z,33.38
2022-09-22T19:01:23.165Z,33.38
2022-09-22T19:03:54.875Z,33.38
2022-09-22T19:06:26.386Z,33.39
2022-09-22T19:08:56.960Z,33.37
2022-09-22T19:11:30.787Z,33.38
2022-09-22T19:14:02.986Z,33.36
2022-09-22T19:16:34.791Z,33.36
2022-09-22T19:19:05.523Z,33.34
2022-09-22T19:21:39.389Z,33.33
2022-09-22T19:24:11.471Z,33.33
2022-09-22T19:26:44.500Z,33.33
2022-09-22T19:29:15.904Z,33.32
2022-09-22T19:31:47.598Z,33.33
2022-09-22T19:34:19.420Z,33.32
2022-09-22T19:36:50.500Z,33.32
2022-09-22T19:39:21.420Z,33.32
2022-09-22T19:41:56.732Z,33.32
2022-09-22T19:44:30.203Z,33.32
2022-09-22T19:47:01.819Z,33.32
2022-09-22T19:49:32.721Z,33.31
2022-09-22T19:52:03.626Z,33.32
2022-09-22T19:54:34.444Z,33.30
2022-09-22T19:57:07.968Z,33.30
2022-09-22T19:59:40.339Z,33.28
2022-09-22T20:02:16.388Z,33.29
2022-09-22T20:04:47.460Z,33.28
2022-09-22T20:07:18.630Z,33.29
2022-09-22T20:09:49.639Z,33.27
2022-09-22T20:12:22.434Z,33.29
2022-09-22T20:14:55.824Z,33.27
2022-09-22T20:17:26.591Z,33.27
2022-09-22T20:19:57.411Z,33.26
2022-09-22T20:22:30.228Z,33.27
2022-09-22T20:25:03.011Z,33.26
2022-09-22T20:27:36.686Z,33.26
2022-09-22T20:30:09.316Z,33.24
2022-09-22T20:32:41.092Z,33.25
2022-09-22T20:35:23.524Z,33.24
2022-09-22T20:37:59.135Z,33.24
2022-09-22T20:40:29.679Z,33.23
2022-09-22T20:43:04.055Z,33.22
2022-09-22T20:45:35.400Z,33.23
2022-09-22T20:48:05.835Z,33.20
2022-09-22T20:50:36.705Z,33.21
2022-09-22T20:53:07.731Z,33.19
2022-09-22T20:55:39.282Z,33.18
2022-09-22T20:58:16.115Z,33.18
2022-09-22T21:00:51.886Z,33.18
2022-09-22T21:03:22.738Z,33.17
2022-09-22T21:05:53.266Z,33.16
2022-09-22T21:08:40.630Z,33.15
2022-09-22T21:11:15.921Z,33.14
2022-09-22T21:13:48.768Z,33.14
2022-09-22T21:16:19.503Z,33.14
2022-09-22T21:18:52.075Z,33.14
2022-09-22T21:21:24.147Z,33.13
2022-09-22T21:23:54.893Z,33.13
2022-09-22T21:26:25.526Z,33.12
2022-09-22T21:28:58.520Z,33.12
2022-09-22T21:31:29.933Z,33.12
2022-09-22T21:34:00.944Z,33.12
2022-09-22T21:36:31.849Z,33.11
2022-09-22T21:39:03.185Z,33.12
2022-09-22T21:41:36.571Z,33.13
2022-09-22T21:44:09.621Z,33.11
2022-09-22T21:46:41.974Z,33.10
2022-09-22T21:49:13.696Z,33.10
2022-09-22T21:51:47.900Z,33.09
2022-09-22T21:54:21.087Z,33.08
2022-09-22T21:56:52.786Z,33.07
2022-09-22T21:59:25.602Z,33.07
2022-09-22T22:01:56.413Z,33.06
2022-09-22T22:04:27.232Z,33.04
2022-09-22T22:06:57.909Z,33.00
2022-09-22T22:09:28.408Z,32.97
2022-09-22T22:12:01.059Z,32.95
2022-09-22T22:14:35.389Z,32.91
2022-09-22T22:17:07.289Z,32.88
2022-09-22T22:19:37.264Z,32.85
2022-09-22T22:22:08.861Z,32.83
2022-09-22T22:24:41.613Z,32.80
2022-09-22T22:27:15.380Z,32.74
2022-09-22T22:29:48.309Z,32.69
2022-09-22T22:32:19.743Z,32.66
2022-09-22T22:34:50.473Z,32.64
2022-09-22T22:37:21.985Z,32.63
2022-09-22T22:39:52.986Z,32.60
2022-09-22T22:42:23.182Z,32.59
2022-09-22T22:44:55.228Z,32.57
2022-09-22T22:47:26.077Z,32.56
2022-09-22T22:49:57.165Z,32.57
2022-09-22T22:52:27.937Z,32.55
2022-09-22T22:54:58.713Z,32.56
2022-09-22T22:57:30.378Z,32.55
2022-09-22T23:00:03.530Z,32.54
2022-09-22T23:02:34.499Z,32.52
2022-09-22T23:05:05.587Z,32.50
2022-09-22T23:07:36.618Z,32.49
2022-09-22T23:10:11.534Z,32.49
2022-09-22T23:12:42.414Z,32.49
2022-09-22T23:15:16.729Z,32.50
2022-09-22T23:17:51.715Z,32.50
2022-09-22T23:20:22.953Z,32.50
2022-09-22T23:22:54.846Z,32.50
2022-09-22T23:25:25.754Z,32.49
2022-09-22T23:27:56.496Z,32.47
2022-09-22T23:30:29.407Z,32.47
2022-09-22T23:33:00.292Z,32.46
2022-09-22T23:35:31.088Z,32.45
2022-09-22T23:38:02.150Z,32.44
2022-09-22T23:40:35.164Z,32.43
2022-09-22T23:43:05.949Z,32.40
2022-09-22T23:45:38.606Z,32.37
2022-09-22T23:48:09.322Z,32.35
2022-09-22T23:50:40.373Z,32.31
2022-09-22T23:53:11.203Z,32.27
2022-09-22T23:55:42.251Z,32.23
2022-09-22T23:58:23.356Z,32.19
